Time;durP1;ratioP1;P1;durP2;ratioP2;P2;SDS_P1;SDS_P2;PMS_P1;PMS_P2;Temp;Humidity;BMP_temperature;BMP_pressure;BME280_temperature;BME280_humidity;BME280_pressure;Samples;Min_cycle;Max_cycle;Signal;HPM_P1;HPM_P2
2023/07/20 00:01:59;;;;;;;1.63;1.08;;;;;;;;;;5060535;28;20048;-87
2023/07/20 00:04:25;;;;;;;1.50;1.40;;;;;;;;;;5028836;28;20045;-87
2023/07/20 00:06:51;;;;;;;1.67;1.17;;;;;;;;;;5030157;28;20063;-87
2023/07/20 00:09:17;;;;;;;1.55;1.10;;;;;;;;;;5030332;28;20549;-87
2023/07/20 00:11:50;;;;;;;1.00;0.90;;;;;;;;;;5028706;28;20144;-87
2023/07/20 00:14:16;;;;;;;1.40;1.30;;;;;;;;;;5030531;28;20045;-88
2023/07/20 00:16:42;;;;;;;1.83;1.60;;;;;;;;;;5034113;28;20045;-87
2023/07/20 00:19:10;;;;;;;1.20;1.10;;;;;;;;;;5049154;28;20041;-88
2023/07/20 00:21:37;;;;;;;1.50;1.40;;;;;;;;;;5049093;28;20044;-87
2023/07/20 00:24:03;;;;;;;1.02;0.93;;;;;;;;;;5050468;28;20379;-87
2023/07/20 00:26:29;;;;;;;2.53;1.40;;;;;;;;;;5031199;28;20049;-87
2023/07/20 00:28:55;;;;;;;1.92;1.23;;;;;;;;;;5028543;28;20651;-88
2023/07/20 00:31:21;;;;;;;1.55;1.25;;;;;;;;;;5046428;28;20072;-87
2023/07/20 00:33:48;;;;;;;1.40;1.30;;;;;;;;;;5049865;28;20036;-88
2023/07/20 00:36:14;;;;;;;2.90;1.58;;;;;;;;;;5049369;28;20041;-87
2023/07/20 00:38:40;;;;;;;1.50;1.30;;;;;;;;;;5048193;28;20082;-87
2023/07/20 00:41:06;;;;;;;2.15;1.73;;;;;;;;;;5049875;28;20090;-87
2023/07/20 00:43:32;;;;;;;2.72;1.65;;;;;;;;;;5042129;28;20444;-87
2023/07/20 00:45:59;;;;;;;1.73;1.42;;;;;;;;;;5028509;28;20048;-87
2023/07/20 00:48:25;;;;;;;1.88;1.42;;;;;;;;;;5029473;28;20041;-87
2023/07/20 00:50:51;;;;;;;1.95;1.42;;;;;;;;;;5028157;28;20045;-87
2023/07/20 00:53:18;;;;;;;1.45;1.30;;;;;;;;;;5028286;28;20042;-87
2023/07/20 00:55:44;;;;;;;2.65;1.50;;;;;;;;;;5029631;28;20459;-87
2023/07/20 00:58:11;;;;;;;2.60;1.60;;;;;;;;;;5041075;28;20124;-87
2023/07/20 01:00:37;;;;;;;1.67;1.52;;;;;;;;;;5049581;28;20079;-87
2023/07/20 01:03:03;;;;;;;1.90;1.80;;;;;;;;;;5048705;28;20048;-88
2023/07/20 01:05:46;;;;;;;2.13;1.90;;;;;;;;;;5048741;28;20049;-88
2023/07/20 01:08:15;;;;;;;2.13;1.92;;;;;;;;;;5049555;28;20140;-88
2023/07/20 01:10:46;;;;;;;5.28;2.25;;;;;;;;;;5046269;28;20032;-87
2023/07/20 01:13:15;;;;;;;2.78;1.75;;;;;;;;;;5048485;28;20060;-88
2023/07/20 01:15:41;;;;;;;2.47;2.08;;;;;;;;;;5049138;28;20428;-87
2023/07/20 01:18:07;;;;;;;2.45;2.05;;;;;;;;;;5048369;28;20040;-87
2023/07/20 01:20:34;;;;;;;3.05;2.35;;;;;;;;;;5048393;28;20033;-87
2023/07/20 01:23:19;;;;;;;3.78;2.10;;;;;;;;;;5050978;28;20037;-87
2023/07/20 01:25:58;;;;;;;2.42;2.22;;;;;;;;;;5047460;28;20374;-88
2023/07/20 01:28:37;;;;;;;2.55;2.35;;;;;;;;;;5030845;28;20097;-88
2023/07/20 01:31:24;;;;;;;2.55;2.25;;;;;;;;;;5046608;28;20049;-88
2023/07/20 01:33:50;;;;;;;2.20;2.00;;;;;;;;;;5047602;28;20388;-87
2023/07/20 01:36:20;;;;;;;2.92;2.45;;;;;;;;;;5047712;28;20041;-88
2023/07/20 01:38:46;;;;;;;2.55;2.20;;;;;;;;;;5047862;28;20037;-87
2023/07/20 01:41:13;;;;;;;2.33;2.13;;;;;;;;;;5047150;28;20046;-89
2023/07/20 01:43:39;;;;;;;3.72;2.95;;;;;;;;;;5060641;28;20041;-87
2023/07/20 01:46:05;;;;;;;2.60;2.40;;;;;;;;;;5060829;28;20172;-87
2023/07/20 01:48:31;;;;;;;3.22;2.35;;;;;;;;;;5060132;28;20075;-87
2023/07/20 01:50:57;;;;;;;2.47;2.20;;;;;;;;;;5048768;28;20478;-87
2023/07/20 01:53:23;;;;;;;2.75;2.50;;;;;;;;;;5033589;28;20087;-86
2023/07/20 01:55:49;;;;;;;3.13;2.60;;;;;;;;;;5050741;28;20409;-87
2023/07/20 01:58:15;;;;;;;2.92;1.95;;;;;;;;;;5050508;28;20139;-87
2023/07/20 02:00:41;;;;;;;4.00;2.75;;;;;;;;;;5038062;28;20033;-87
2023/07/20 02:03:07;;;;;;;4.55;2.72;;;;;;;;;;5051349;28;20044;-87
2023/07/20 02:05:33;;;;;;;2.53;2.33;;;;;;;;;;5051067;28;20680;-86
2023/07/20 02:07:59;;;;;;;3.10;2.58;;;;;;;;;;5034711;28;20167;-87
2023/07/20 02:10:25;;;;;;;3.35;2.38;;;;;;;;;;5057345;28;20043;-86
2023/07/20 02:12:51;;;;;;;5.03;2.80;;;;;;;;;;5055216;28;20639;-87
2023/07/20 02:15:18;;;;;;;2.60;2.40;;;;;;;;;;5031334;28;20064;-86
2023/07/20 02:17:44;;;;;;;2.58;2.38;;;;;;;;;;5031013;28;20049;-87
2023/07/20 02:20:11;;;;;;;2.58;2.38;;;;;;;;;;5045754;28;20052;-86
2023/07/20 02:22:37;;;;;;;3.78;2.60;;;;;;;;;;5031645;28;20049;-87
2023/07/20 02:25:07;;;;;;;3.40;2.85;;;;;;;;;;5031424;28;20033;-87
2023/07/20 02:27:34;;;;;;;3.10;2.63;;;;;;;;;;5044520;28;20171;-87
2023/07/20 02:30:00;;;;;;;3.05;2.75;;;;;;;;;;5051300;28;20053;-87
2023/07/20 02:32:26;;;;;;;3.05;2.63;;;;;;;;;;5050005;28;20130;-87
2023/07/20 02:34:52;;;;;;;3.22;2.75;;;;;;;;;;5050346;28;20083;-88
2023/07/20 02:37:18;;;;;;;3.25;2.70;;;;;;;;;;5037042;28;20041;-86
2023/07/20 02:39:44;;;;;;;4.18;2.65;;;;;;;;;;5031949;28;20048;-87
2023/07/20 02:42:10;;;;;;;3.00;2.58;;;;;;;;;;5034281;28;20132;-87
2023/07/20 02:44:36;;;;;;;3.22;2.92;;;;;;;;;;5047755;28;20045;-87
2023/07/20 02:47:02;;;;;;;3.75;2.53;;;;;;;;;;5040991;28;20041;-87
2023/07/20 02:49:28;;;;;;;2.97;2.67;;;;;;;;;;5039884;28;20386;-87
2023/07/20 02:51:54;;;;;;;4.13;2.80;;;;;;;;;;5031322;28;20367;-87
2023/07/20 02:54:20;;;;;;;2.83;2.58;;;;;;;;;;5030453;28;20102;-87
2023/07/20 02:56:46;;;;;;;2.88;2.58;;;;;;;;;;5031657;28;20034;-87
2023/07/20 02:59:12;;;;;;;3.53;3.22;;;;;;;;;;5063745;28;20041;-88
2023/07/20 03:01:38;;;;;;;2.70;2.33;;;;;;;;;;5062935;28;20057;-87
2023/07/20 03:04:04;;;;;;;2.55;2.03;;;;;;;;;;5063953;28;20124;-87
2023/07/20 03:06:31;;;;;;;3.28;2.40;;;;;;;;;;5047045;28;20063;-87
2023/07/20 03:08:57;;;;;;;3.63;2.22;;;;;;;;;;5062804;28;20455;-88
2023/07/20 03:11:23;;;;;;;2.42;2.15;;;;;;;;;;5076064;28;20448;-88
2023/07/20 03:13:49;;;;;;;4.82;2.53;;;;;;;;;;5030948;28;20056;-88
2023/07/20 03:16:18;;;;;;;3.42;2.38;;;;;;;;;;5031112;28;20120;-88
2023/07/20 03:18:44;;;;;;;3.88;2.42;;;;;;;;;;5039748;28;20064;-89
2023/07/20 03:21:13;;;;;;;3.13;2.72;;;;;;;;;;5051663;28;20045;-89
2023/07/20 03:23:40;;;;;;;2.40;2.17;;;;;;;;;;5049690;28;20055;-89
2023/07/20 03:26:10;;;;;;;3.30;2.35;;;;;;;;;;5034841;28;20502;-88
2023/07/20 03:28:36;;;;;;;2.90;2.30;;;;;;;;;;5029493;28;20041;-89
2023/07/20 03:31:02;;;;;;;2.90;2.60;;;;;;;;;;5029680;28;20048;-89
2023/07/20 03:33:29;;;;;;;3.17;2.08;;;;;;;;;;5031488;28;20041;-88
2023/07/20 03:35:55;;;;;;;3.05;2.15;;;;;;;;;;5062963;28;20038;-89
2023/07/20 03:38:21;;;;;;;3.30;2.30;;;;;;;;;;5030922;28;20115;-88
2023/07/20 03:40:51;;;;;;;3.83;2.85;;;;;;;;;;5071667;28;20041;-89
2023/07/20 03:43:18;;;;;;;2.40;1.88;;;;;;;;;;5056109;28;20042;-89
2023/07/20 03:45:45;;;;;;;2.85;2.38;;;;;;;;;;5060741;28;20041;-89
2023/07/20 03:48:11;;;;;;;3.60;2.50;;;;;;;;;;5037460;28;20041;-90
2023/07/20 03:50:37;;;;;;;2.75;1.95;;;;;;;;;;5037903;28;20049;-88
2023/07/20 03:53:03;;;;;;;3.47;2.17;;;;;;;;;;5031503;28;20051;-89
2023/07/20 03:55:29;;;;;;;2.80;2.28;;;;;;;;;;5029663;28;20041;-89
2023/07/20 03:57:55;;;;;;;2.50;2.15;;;;;;;;;;5030248;28;20042;-89
2023/07/20 04:00:21;;;;;;;3.72;2.88;;;;;;;;;;5029431;28;20118;-89
2023/07/20 04:02:47;;;;;;;2.60;2.38;;;;;;;;;;5044953;28;20037;-88
2023/07/20 04:05:13;;;;;;;2.70;2.35;;;;;;;;;;5033017;28;20045;-88
2023/07/20 04:07:39;;;;;;;2.58;2.38;;;;;;;;;;5048798;28;20041;-89
2023/07/20 04:10:06;;;;;;;3.08;1.95;;;;;;;;;;5036500;28;20047;-89
2023/07/20 04:12:32;;;;;;;3.80;2.70;;;;;;;;;;5029529;28;20061;-89
2023/07/20 04:14:58;;;;;;;2.53;2.30;;;;;;;;;;5030946;28;20181;-88
2023/07/20 04:17:24;;;;;;;3.53;2.45;;;;;;;;;;5037222;28;20417;-89
2023/07/20 04:19:50;;;;;;;3.35;2.30;;;;;;;;;;5012733;28;20390;-88
2023/07/20 04:22:16;;;;;;;2.65;1.90;;;;;;;;;;5029831;28;20041;-88
2023/07/20 04:24:42;;;;;;;2.90;2.40;;;;;;;;;;5036754;28;20088;-88
2023/07/20 04:27:09;;;;;;;2.35;2.15;;;;;;;;;;5014461;28;20042;-88
2023/07/20 04:29:35;;;;;;;2.42;2.17;;;;;;;;;;5011946;28;20049;-88
2023/07/20 04:32:01;;;;;;;4.07;2.45;;;;;;;;;;5049896;28;20448;-88
2023/07/20 04:34:27;;;;;;;2.05;1.65;;;;;;;;;;5044644;28;20394;-88
2023/07/20 04:36:53;;;;;;;3.17;2.30;;;;;;;;;;5034660;28;20029;-88
2023/07/20 04:39:19;;;;;;;2.33;2.13;;;;;;;;;;5035130;28;20033;-86
2023/07/20 04:41:45;;;;;;;3.28;2.42;;;;;;;;;;5039737;28;20362;-85
2023/07/20 04:44:11;;;;;;;2.70;2.47;;;;;;;;;;5042397;28;20045;-85
2023/07/20 04:46:37;;;;;;;2.85;2.10;;;;;;;;;;5035355;28;20080;-83
2023/07/20 04:49:03;;;;;;;2.13;1.92;;;;;;;;;;5048259;28;20076;-83
2023/07/20 04:51:30;;;;;;;4.25;2.17;;;;;;;;;;5028594;28;20040;-83
2023/07/20 04:53:56;;;;;;;2.22;1.98;;;;;;;;;;5045467;28;20456;-85
2023/07/20 04:56:25;;;;;;;2.28;2.00;;;;;;;;;;5045189;28;20037;-86
2023/07/20 04:58:51;;;;;;;2.90;2.28;;;;;;;;;;5048422;28;20097;-84
2023/07/20 05:01:17;;;;;;;2.28;2.08;;;;;;;;;;5055231;28;20067;-82
2023/07/20 05:03:43;;;;;;;2.88;2.00;;;;;;;;;;5036623;28;20113;-82
2023/07/20 05:06:09;;;;;;;2.20;2.00;;;;;;;;;;5044280;28;20037;-82
2023/07/20 05:08:35;;;;;;;2.28;1.88;;;;;;;;;;5045367;28;20094;-82
2023/07/20 05:11:01;;;;;;;2.20;2.00;;;;;;;;;;5052813;28;20084;-82
2023/07/20 05:13:27;;;;;;;2.65;1.88;;;;;;;;;;5039457;28;20054;-84
2023/07/20 05:15:54;;;;;;;2.40;2.20;;;;;;;;;;5064294;28;20041;-83
2023/07/20 05:18:20;;;;;;;2.63;1.63;;;;;;;;;;5037744;28;20091;-83
2023/07/20 05:20:50;;;;;;;2.00;1.80;;;;;;;;;;5061709;28;20405;-83
2023/07/20 05:23:19;;;;;;;2.30;1.88;;;;;;;;;;5042578;28;20159;-83
2023/07/20 05:25:45;;;;;;;2.90;1.83;;;;;;;;;;5046545;28;20056;-84
2023/07/20 05:28:12;;;;;;;3.17;1.90;;;;;;;;;;5053997;28;20084;-83
2023/07/20 05:30:38;;;;;;;2.65;1.92;;;;;;;;;;5046838;28;20041;-82
2023/07/20 05:33:04;;;;;;;2.95;1.80;;;;;;;;;;5053822;28;20032;-83
2023/07/20 05:35:30;;;;;;;1.75;1.65;;;;;;;;;;5050549;28;20041;-82
2023/07/20 05:37:56;;;;;;;1.67;1.42;;;;;;;;;;5050316;28;20584;-83
2023/07/20 05:40:22;;;;;;;2.35;1.88;;;;;;;;;;5050411;28;20103;-82
2023/07/20 05:42:49;;;;;;;2.45;1.73;;;;;;;;;;5040849;28;20056;-82
2023/07/20 05:45:15;;;;;;;2.00;1.80;;;;;;;;;;5041339;28;20045;-81
2023/07/20 05:47:42;;;;;;;1.80;1.58;;;;;;;;;;5051944;28;20041;-81
2023/07/20 05:50:09;;;;;;;1.40;1.30;;;;;;;;;;5050403;28;20120;-81
2023/07/20 05:52:35;;;;;;;1.23;1.13;;;;;;;;;;5054161;28;20051;-81
2023/07/20 05:55:01;;;;;;;2.22;1.40;;;;;;;;;;5062799;28;20033;-82
2023/07/20 05:57:27;;;;;;;1.50;1.40;;;;;;;;;;5040186;28;20383;-81
2023/07/20 05:59:53;;;;;;;1.95;1.60;;;;;;;;;;5050898;28;20053;-81
2023/07/20 06:02:19;;;;;;;1.75;1.42;;;;;;;;;;5047389;28;20482;-81
2023/07/20 06:04:45;;;;;;;2.92;1.30;;;;;;;;;;5070813;28;20040;-81
2023/07/20 06:07:11;;;;;;;2.63;1.23;;;;;;;;;;5064452;28;20040;-82
2023/07/20 06:09:37;;;;;;;1.48;1.27;;;;;;;;;;5066623;28;20053;-80
2023/07/20 06:12:03;;;;;;;1.02;0.93;;;;;;;;;;5069034;28;20444;-80
2023/07/20 06:14:29;;;;;;;1.98;1.10;;;;;;;;;;5051413;28;20037;-81
2023/07/20 06:16:55;;;;;;;0.93;0.77;;;;;;;;;;5045722;28;20618;-80
2023/07/20 06:19:22;;;;;;;1.73;1.20;;;;;;;;;;5049625;28;20048;-81
2023/07/20 06:21:49;;;;;;;1.27;1.10;;;;;;;;;;5052672;28;20060;-81
2023/07/20 06:24:16;;;;;;;2.65;1.30;;;;;;;;;;5062450;28;20044;-81
2023/07/20 06:26:42;;;;;;;1.95;1.15;;;;;;;;;;5059170;28;20033;-80
2023/07/20 06:29:11;;;;;;;1.10;0.90;;;;;;;;;;5045598;28;20126;-80
2023/07/20 06:31:37;;;;;;;1.55;1.00;;;;;;;;;;5052363;28;20421;-83
2023/07/20 06:34:03;;;;;;;0.85;0.63;;;;;;;;;;5051239;28;20478;-81
2023/07/20 06:36:29;;;;;;;0.77;0.77;;;;;;;;;;5062637;28;20032;-80
2023/07/20 06:38:58;;;;;;;1.20;1.00;;;;;;;;;;5051860;28;20739;-82
2023/07/20 06:41:24;;;;;;;1.15;0.98;;;;;;;;;;5052484;28;20686;-81
2023/07/20 06:43:52;;;;;;;2.15;0.70;;;;;;;;;;5049601;28;20128;-82
2023/07/20 06:46:18;;;;;;;0.70;0.63;;;;;;;;;;5048822;28;20489;-82
2023/07/20 06:48:44;;;;;;;2.33;1.00;;;;;;;;;;5044373;28;20464;-83
2023/07/20 06:51:10;;;;;;;1.02;0.60;;;;;;;;;;5047721;28;20051;-82
2023/07/20 06:53:36;;;;;;;1.90;0.80;;;;;;;;;;5050871;28;20536;-80
2023/07/20 06:56:02;;;;;;;1.13;0.63;;;;;;;;;;5040911;28;20112;-80
2023/07/20 06:58:28;;;;;;;1.27;0.77;;;;;;;;;;5033623;28;20409;-79
2023/07/20 07:00:54;;;;;;;2.03;0.80;;;;;;;;;;5040999;28;20048;-83
2023/07/20 07:03:21;;;;;;;2.60;0.75;;;;;;;;;;5056758;28;20037;-82
2023/07/20 07:05:47;;;;;;;3.30;0.60;;;;;;;;;;5077136;28;20041;-81
2023/07/20 07:08:13;;;;;;;0.70;0.60;;;;;;;;;;5053332;28;20063;-80
2023/07/20 07:10:39;;;;;;;1.75;0.70;;;;;;;;;;5035579;28;20076;-81
2023/07/20 07:13:05;;;;;;;1.08;0.63;;;;;;;;;;5050918;28;20091;-79
2023/07/20 07:15:32;;;;;;;2.05;0.60;;;;;;;;;;5050145;28;20383;-81
2023/07/20 07:17:59;;;;;;;0.93;0.60;;;;;;;;;;5068589;28;20127;-83
2023/07/20 07:20:25;;;;;;;1.40;0.88;;;;;;;;;;5042837;28;20562;-81
2023/07/20 07:22:52;;;;;;;0.60;0.60;;;;;;;;;;5033123;28;20057;-81
2023/07/20 07:25:19;;;;;;;2.50;0.70;;;;;;;;;;5030690;28;20049;-81
2023/07/20 07:27:45;;;;;;;1.75;0.63;;;;;;;;;;5044902;28;20362;-81
2023/07/20 07:30:12;;;;;;;1.40;0.50;;;;;;;;;;5042933;28;20040;-82
2023/07/20 07:32:38;;;;;;;1.17;0.60;;;;;;;;;;5030800;28;20389;-82
2023/07/20 07:35:04;;;;;;;0.95;0.45;;;;;;;;;;5067532;28;20424;-82
2023/07/20 07:37:30;;;;;;;0.73;0.60;;;;;;;;;;5067140;28;20399;-90
2023/07/20 07:39:57;;;;;;;2.25;0.60;;;;;;;;;;5039158;28;20043;-90
2023/07/20 07:42:23;;;;;;;1.80;0.70;;;;;;;;;;5076097;28;20059;-89
2023/07/20 07:44:49;;;;;;;0.77;0.57;;;;;;;;;;5049967;28;20095;-94
2023/07/20 07:47:15;;;;;;;1.27;0.70;;;;;;;;;;5050737;28;20037;-93
2023/07/20 07:49:41;;;;;;;0.57;0.57;;;;;;;;;;5037933;28;20037;-92
2023/07/20 07:52:08;;;;;;;0.60;0.47;;;;;;;;;;5047724;28;20041;-90
2023/07/20 07:54:34;;;;;;;2.17;0.52;;;;;;;;;;5054867;28;20049;-89
2023/07/20 07:57:00;;;;;;;1.42;0.47;;;;;;;;;;5052597;28;20048;-86
2023/07/20 07:59:26;;;;;;;1.02;0.55;;;;;;;;;;5040905;28;20037;-85
2023/07/20 08:01:52;;;;;;;1.00;0.68;;;;;;;;;;5041466;28;20116;-87
2023/07/20 08:04:18;;;;;;;1.92;0.60;;;;;;;;;;5045098;28;20041;-86
2023/07/20 08:06:45;;;;;;;1.20;0.50;;;;;;;;;;5038411;28;20043;-83
2023/07/20 08:09:11;;;;;;;1.48;0.40;;;;;;;;;;5041994;28;20084;-84
2023/07/20 08:11:39;;;;;;;0.88;0.60;;;;;;;;;;5031347;28;20081;-83
2023/07/20 08:14:05;;;;;;;1.33;0.52;;;;;;;;;;5033967;28;20115;-85
2023/07/20 08:16:31;;;;;;;1.38;0.40;;;;;;;;;;5038376;28;20401;-85
2023/07/20 08:18:57;;;;;;;1.55;0.43;;;;;;;;;;5037538;28;20128;-83
2023/07/20 08:21:23;;;;;;;1.92;0.60;;;;;;;;;;5049363;28;20045;-83
2023/07/20 08:23:49;;;;;;;1.38;0.73;;;;;;;;;;5049619;28;20095;-82
2023/07/20 08:26:15;;;;;;;1.52;0.50;;;;;;;;;;5038709;28;20052;-85
2023/07/20 08:28:42;;;;;;;1.27;0.50;;;;;;;;;;5047413;28;20094;-82
2023/07/20 08:31:08;;;;;;;1.90;0.73;;;;;;;;;;5041897;28;20042;-83
2023/07/20 08:33:34;;;;;;;2.15;0.63;;;;;;;;;;5028066;28;20111;-83
2023/07/20 08:36:01;;;;;;;2.00;0.55;;;;;;;;;;5040239;28;20037;-86
2023/07/20 08:38:28;;;;;;;1.33;0.70;;;;;;;;;;5037281;28;20041;-84
2023/07/20 08:40:55;;;;;;;0.75;0.40;;;;;;;;;;5047879;28;20041;-84
2023/07/20 08:43:23;;;;;;;0.90;0.50;;;;;;;;;;5022946;28;20056;-84
2023/07/20 08:45:50;;;;;;;0.80;0.40;;;;;;;;;;5045981;28;20048;-84
2023/07/20 08:48:17;;;;;;;0.93;0.82;;;;;;;;;;5046720;28;20041;-84
2023/07/20 08:50:44;;;;;;;1.00;0.68;;;;;;;;;;5033449;28;20033;-83
2023/07/20 08:53:11;;;;;;;1.13;0.52;;;;;;;;;;5034726;28;20037;-83
2023/07/20 08:55:37;;;;;;;0.50;0.50;;;;;;;;;;5037729;28;20037;-85
2023/07/20 08:58:03;;;;;;;0.95;0.45;;;;;;;;;;5025618;28;20060;-84
2023/07/20 09:00:29;;;;;;;1.00;0.70;;;;;;;;;;5030669;28;20111;-88
2023/07/20 09:02:56;;;;;;;0.82;0.50;;;;;;;;;;5030241;28;20778;-82
2023/07/20 09:05:27;;;;;;;1.10;0.60;;;;;;;;;;5035668;28;20044;-84
2023/07/20 09:07:53;;;;;;;0.52;0.40;;;;;;;;;;5032029;28;20052;-85
2023/07/20 09:10:25;;;;;;;1.80;0.50;;;;;;;;;;5028012;28;20402;-83
2023/07/20 09:12:51;;;;;;;1.52;0.65;;;;;;;;;;5033745;28;20060;-86
2023/07/20 09:15:17;;;;;;;1.83;0.60;;;;;;;;;;5042176;28;20041;-85
2023/07/20 09:17:48;;;;;;;0.60;0.40;;;;;;;;;;5044214;28;20112;-85
2023/07/20 09:20:15;;;;;;;1.70;0.70;;;;;;;;;;5070393;28;20063;-83
2023/07/20 09:22:42;;;;;;;0.98;0.60;;;;;;;;;;5047188;28;20349;-85
2023/07/20 09:25:12;;;;;;;1.17;0.38;;;;;;;;;;5049596;28;20485;-85
2023/07/20 09:27:39;;;;;;;0.60;0.50;;;;;;;;;;5027984;28;20383;-85
2023/07/20 09:30:10;;;;;;;1.17;0.55;;;;;;;;;;5037668;28;20037;-86
2023/07/20 09:32:44;;;;;;;0.70;0.50;;;;;;;;;;5040043;28;20049;-85
2023/07/20 09:35:17;;;;;;;0.65;0.40;;;;;;;;;;5048022;28;20040;-86
2023/07/20 09:37:52;;;;;;;0.40;0.30;;;;;;;;;;5044122;28;20037;-83
2023/07/20 09:40:19;;;;;;;0.70;0.40;;;;;;;;;;5045533;28;20044;-83
2023/07/20 09:42:45;;;;;;;0.65;0.50;;;;;;;;;;5045232;28;20049;-83
2023/07/20 09:45:12;;;;;;;1.38;0.50;;;;;;;;;;5045635;28;20040;-82
2023/07/20 09:47:38;;;;;;;0.45;0.45;;;;;;;;;;5051424;28;20422;-83
2023/07/20 09:50:10;;;;;;;2.05;0.55;;;;;;;;;;5047777;28;20071;-82
2023/07/20 09:52:36;;;;;;;1.02;0.40;;;;;;;;;;5040029;28;20044;-82
2023/07/20 09:55:04;;;;;;;1.55;0.60;;;;;;;;;;5044781;28;20048;-84
2023/07/20 09:57:30;;;;;;;2.30;0.40;;;;;;;;;;5046060;28;20047;-86
2023/07/20 09:59:59;;;;;;;1.25;0.57;;;;;;;;;;5042226;28;20033;-86
2023/07/20 10:02:27;;;;;;;1.38;0.43;;;;;;;;;;5039719;28;20049;-92
2023/07/20 10:04:55;;;;;;;1.38;0.70;;;;;;;;;;5036763;28;20056;-91
2023/07/20 10:07:24;;;;;;;1.55;0.40;;;;;;;;;;5035002;28;20662;-90
2023/07/20 10:09:52;;;;;;;0.82;0.55;;;;;;;;;;5037907;28;20397;-94
2023/07/20 10:12:20;;;;;;;0.47;0.38;;;;;;;;;;5038211;28;20057;-86
2023/07/20 10:14:53;;;;;;;0.82;0.45;;;;;;;;;;5033326;28;20144;-87
2023/07/20 10:17:20;;;;;;;1.38;0.98;;;;;;;;;;5032105;28;20047;-84
2023/07/20 10:19:50;;;;;;;1.48;0.82;;;;;;;;;;5037455;28;20369;-86
2023/07/20 10:22:22;;;;;;;1.48;0.70;;;;;;;;;;5040357;28;20049;-86
2023/07/20 10:24:49;;;;;;;1.05;0.60;;;;;;;;;;5037850;28;20405;-89
2023/07/20 10:27:15;;;;;;;3.22;0.60;;;;;;;;;;5053582;28;20473;-90
2023/07/20 10:29:42;;;;;;;1.02;0.57;;;;;;;;;;5025820;28;20136;-91
2023/07/20 10:32:08;;;;;;;0.75;0.40;;;;;;;;;;5039243;28;20106;-89
2023/07/20 10:34:34;;;;;;;0.77;0.50;;;;;;;;;;5039273;28;20049;-88
2023/07/20 10:37:00;;;;;;;0.80;0.60;;;;;;;;;;5040942;28;20056;-88
2023/07/20 10:39:27;;;;;;;1.77;0.50;;;;;;;;;;5037545;28;20040;-87
2023/07/20 10:42:10;;;;;;;1.42;0.63;;;;;;;;;;5039634;28;20477;-87
2023/07/20 10:44:42;;;;;;;1.58;0.50;;;;;;;;;;5036570;28;20444;-87
2023/07/20 10:47:12;;;;;;;1.10;0.50;;;;;;;;;;5042737;28;20037;-88
2023/07/20 10:49:57;;;;;;;1.02;0.40;;;;;;;;;;5068759;28;20560;-88
2023/07/20 10:52:23;;;;;;;0.73;0.43;;;;;;;;;;5040159;28;20082;-88
2023/07/20 10:54:50;;;;;;;1.65;0.80;;;;;;;;;;5038667;28;20041;-83
2023/07/20 10:57:24;;;;;;;1.67;0.90;;;;;;;;;;5030913;28;20045;-82
2023/07/20 10:59:50;;;;;;;1.67;0.90;;;;;;;;;;5036745;28;20115;-84
2023/07/20 11:02:18;;;;;;;2.42;0.90;;;;;;;;;;5040435;28;20123;-88
2023/07/20 11:04:45;;;;;;;2.10;0.95;;;;;;;;;;5039953;28;20456;-85
2023/07/20 11:07:15;;;;;;;1.35;0.93;;;;;;;;;;5038377;28;20051;-89
2023/07/20 11:09:42;;;;;;;1.50;0.80;;;;;;;;;;5040856;28;20107;-88
2023/07/20 11:12:13;;;;;;;2.95;2.60;;;;;;;;;;5038876;28;20061;-91
2023/07/20 11:14:58;;;;;;;1.13;0.73;;;;;;;;;;5037497;28;20047;-88
2023/07/20 11:17:32;;;;;;;1.25;0.70;;;;;;;;;;5035797;28;20056;-87
2023/07/20 11:19:58;;;;;;;1.52;1.13;;;;;;;;;;5050873;28;20123;-83
2023/07/20 11:22:24;;;;;;;1.92;0.82;;;;;;;;;;5032973;28;20041;-82
2023/07/20 11:24:50;;;;;;;1.58;0.70;;;;;;;;;;5036474;28;20370;-82
2023/07/20 11:27:19;;;;;;;2.00;0.80;;;;;;;;;;5034660;28;20504;-82
2023/07/20 11:29:45;;;;;;;2.45;0.60;;;;;;;;;;5032174;28;20057;-83
2023/07/20 11:32:11;;;;;;;1.05;0.80;;;;;;;;;;5032267;28;20038;-82
2023/07/20 11:34:37;;;;;;;0.70;0.63;;;;;;;;;;5037112;28;20350;-83
2023/07/20 11:37:04;;;;;;;2.55;1.10;;;;;;;;;;5032996;28;20124;-81
2023/07/20 11:39:30;;;;;;;0.60;0.60;;;;;;;;;;5034874;28;20678;-81
2023/07/20 11:41:57;;;;;;;2.58;0.77;;;;;;;;;;5033357;28;20128;-79
2023/07/20 11:44:27;;;;;;;1.27;0.60;;;;;;;;;;5040905;28;20112;-81
2023/07/20 11:47:03;;;;;;;1.10;0.50;;;;;;;;;;5046160;28;20037;-79
2023/07/20 11:49:30;;;;;;;1.00;0.63;;;;;;;;;;5032882;28;20129;-81
2023/07/20 11:51:57;;;;;;;0.80;0.80;;;;;;;;;;5034006;28;20072;-79
2023/07/20 11:54:23;;;;;;;1.00;0.55;;;;;;;;;;5036509;28;20041;-81
2023/07/20 11:56:53;;;;;;;1.77;1.08;;;;;;;;;;5066777;28;20393;-81
2023/07/20 11:59:19;;;;;;;1.70;0.50;;;;;;;;;;5038056;28;20116;-82
2023/07/20 12:01:46;;;;;;;1.27;0.65;;;;;;;;;;5069957;28;20048;-81
2023/07/20 12:04:12;;;;;;;0.85;0.60;;;;;;;;;;5036124;28;20124;-81
2023/07/20 12:06:38;;;;;;;4.65;0.90;;;;;;;;;;5036681;28;20482;-87
2023/07/20 12:09:04;;;;;;;1.58;0.63;;;;;;;;;;5064442;28;20452;-84
2023/07/20 12:11:39;;;;;;;1.55;0.85;;;;;;;;;;5033592;28;20041;-82
2023/07/20 12:14:08;;;;;;;1.40;0.50;;;;;;;;;;5054831;28;20047;-82
2023/07/20 12:16:35;;;;;;;3.03;0.70;;;;;;;;;;5035436;28;20662;-82
2023/07/20 12:19:04;;;;;;;1.02;0.60;;;;;;;;;;5039306;28;20092;-83
2023/07/20 12:21:31;;;;;;;1.55;0.60;;;;;;;;;;5043067;28;20040;-82
2023/07/20 12:23:58;;;;;;;0.85;0.52;;;;;;;;;;5038236;28;20048;-82
2023/07/20 12:26:25;;;;;;;1.17;0.85;;;;;;;;;;5037029;28;20106;-83
2023/07/20 12:28:52;;;;;;;2.22;0.88;;;;;;;;;;5034309;28;20037;-81
2023/07/20 12:31:19;;;;;;;0.73;0.60;;;;;;;;;;5035429;28;20094;-83
2023/07/20 12:33:45;;;;;;;0.95;0.85;;;;;;;;;;5048810;28;20560;-80
2023/07/20 12:36:11;;;;;;;1.10;0.50;;;;;;;;;;5036054;28;21981;-82
2023/07/20 12:38:37;;;;;;;0.90;0.45;;;;;;;;;;5037697;28;20099;-82
2023/07/20 12:41:03;;;;;;;1.23;0.63;;;;;;;;;;5037914;28;20037;-82
2023/07/20 12:43:31;;;;;;;3.17;0.80;;;;;;;;;;5032137;28;20042;-82
2023/07/20 12:45:58;;;;;;;0.82;0.40;;;;;;;;;;5042449;28;20049;-81
2023/07/20 12:48:24;;;;;;;0.75;0.65;;;;;;;;;;5035037;28;20147;-82
2023/07/20 12:50:50;;;;;;;1.00;0.60;;;;;;;;;;5031487;28;20094;-82
2023/07/20 12:53:16;;;;;;;1.23;0.60;;;;;;;;;;5037167;28;20107;-82
2023/07/20 12:55:42;;;;;;;0.88;0.50;;;;;;;;;;5038148;28;20041;-82
2023/07/20 12:58:08;;;;;;;0.88;0.40;;;;;;;;;;5033365;28;20071;-82
2023/07/20 13:00:35;;;;;;;3.55;0.80;;;;;;;;;;5035463;28;20140;-83
2023/07/20 13:03:04;;;;;;;0.98;0.60;;;;;;;;;;5045357;28;20094;-83
2023/07/20 13:05:31;;;;;;;1.17;0.60;;;;;;;;;;5036423;28;20405;-83
2023/07/20 13:07:58;;;;;;;1.10;0.75;;;;;;;;;;5031611;28;20053;-84
2023/07/20 13:10:24;;;;;;;0.60;0.50;;;;;;;;;;5064345;28;20395;-83
2023/07/20 13:12:50;;;;;;;1.17;0.60;;;;;;;;;;5036457;28;20054;-82
2023/07/20 13:15:17;;;;;;;2.13;0.80;;;;;;;;;;5035056;28;20140;-81
2023/07/20 13:17:43;;;;;;;1.92;0.80;;;;;;;;;;5041487;28;20041;-81
2023/07/20 13:20:10;;;;;;;1.10;0.88;;;;;;;;;;5033570;28;20041;-81
2023/07/20 13:22:37;;;;;;;1.15;0.60;;;;;;;;;;5041511;28;20044;-81
2023/07/20 13:25:03;;;;;;;0.93;0.60;;;;;;;;;;5044682;28;20433;-81
2023/07/20 13:27:31;;;;;;;2.05;0.80;;;;;;;;;;5047804;28;20080;-81
2023/07/20 13:29:57;;;;;;;1.98;0.70;;;;;;;;;;5049073;28;20037;-82
2023/07/20 13:32:23;;;;;;;0.40;0.40;;;;;;;;;;5046838;28;20037;-85
2023/07/20 13:34:49;;;;;;;1.05;0.60;;;;;;;;;;5033074;28;20044;-83
2023/07/20 13:37:16;;;;;;;2.63;1.00;;;;;;;;;;5037595;28;20028;-83
2023/07/20 13:39:43;;;;;;;1.45;0.75;;;;;;;;;;5031076;28;20461;-83
2023/07/20 13:42:10;;;;;;;2.10;1.23;;;;;;;;;;5042546;28;20077;-82
2023/07/20 13:44:37;;;;;;;1.67;0.98;;;;;;;;;;5045228;28;20049;-83
2023/07/20 13:47:05;;;;;;;2.30;1.02;;;;;;;;;;5015854;28;20131;-83
2023/07/20 13:49:32;;;;;;;1.23;0.90;;;;;;;;;;5063591;28;20053;-82
2023/07/20 13:51:58;;;;;;;1.73;1.00;;;;;;;;;;5033926;28;20045;-82
2023/07/20 13:54:24;;;;;;;0.90;0.73;;;;;;;;;;5031012;28;20072;-81
2023/07/20 13:56:51;;;;;;;1.80;0.90;;;;;;;;;;5039904;28;20037;-81
2023/07/20 13:59:17;;;;;;;1.33;0.70;;;;;;;;;;5037084;28;20037;-82
2023/07/20 14:01:43;;;;;;;1.67;0.77;;;;;;;;;;5037966;28;20073;-83
2023/07/20 14:04:09;;;;;;;2.13;0.93;;;;;;;;;;5037914;28;20075;-82
2023/07/20 14:06:35;;;;;;;1.85;0.80;;;;;;;;;;5036943;28;20060;-83
2023/07/20 14:09:03;;;;;;;0.93;0.73;;;;;;;;;;5036182;28;20042;-82
2023/07/20 14:11:29;;;;;;;1.80;1.20;;;;;;;;;;5039526;28;20458;-82
2023/07/20 14:13:55;;;;;;;1.77;0.95;;;;;;;;;;5038457;28;20126;-82
2023/07/20 14:16:21;;;;;;;1.40;1.08;;;;;;;;;;5039300;28;20041;-83
2023/07/20 14:18:48;;;;;;;1.42;0.70;;;;;;;;;;5039293;28;20048;-83
2023/07/20 14:21:15;;;;;;;1.52;1.00;;;;;;;;;;5040367;28;20416;-83
2023/07/20 14:23:41;;;;;;;1.70;1.00;;;;;;;;;;5039224;28;20075;-84
2023/07/20 14:26:10;;;;;;;1.15;0.70;;;;;;;;;;5045213;28;20418;-83
2023/07/20 14:28:36;;;;;;;1.50;0.60;;;;;;;;;;5049353;28;20033;-85
2023/07/20 14:31:02;;;;;;;2.70;0.75;;;;;;;;;;5024982;28;20056;-84
2023/07/20 14:33:28;;;;;;;0.88;0.63;;;;;;;;;;5036827;28;20045;-83
2023/07/20 14:35:54;;;;;;;1.73;0.80;;;;;;;;;;5038269;28;20033;-84
2023/07/20 14:38:20;;;;;;;1.02;0.80;;;;;;;;;;5039899;28;20044;-82
2023/07/20 14:40:46;;;;;;;1.23;0.75;;;;;;;;;;5035958;28;20124;-83
2023/07/20 14:43:13;;;;;;;2.35;0.43;;;;;;;;;;5038857;28;20045;-83